Time;durP1;ratioP1;P1;durP2;ratioP2;P2;SDS_P1;SDS_P2;PMS_P1;PMS_P2;Temp;Humidity;BMP_temperature;BMP_pressure;BME280_temperature;BME280_humidity;BME280_pressure;Samples;Min_cycle;Max_cycle;Signal;HPM_P1;HPM_P2
2021/12/30 00:01:37;;;;;;;;;0.00;0.00;;;;;;;;5036951;28;45704;-81
2021/12/30 00:04:02;;;;;;;;;0.00;0.00;;;;;;;;5034154;28;45357;-79
2021/12/30 00:06:29;;;;;;;;;0.00;0.00;;;;;;;;5036532;28;45446;-80
2021/12/30 00:08:55;;;;;;;;;1.00;0.00;;;;;;;;5037707;28;45693;-80
2021/12/30 00:11:20;;;;;;;;;0.00;0.00;;;;;;;;5035506;28;45588;-80
2021/12/30 00:13:45;;;;;;;;;0.00;0.00;;;;;;;;5034585;28;45703;-81
2021/12/30 00:16:12;;;;;;;;;4.00;0.00;;;;;;;;5033604;28;45595;-81
2021/12/30 00:18:37;;;;;;;;;0.25;0.25;;;;;;;;5026437;28;45520;-82
2021/12/30 00:21:02;;;;;;;;;0.00;0.00;;;;;;;;5028914;28;46944;-81
2021/12/30 00:23:27;;;;;;;;;0.33;0.33;;;;;;;;5026968;28;45564;-81
2021/12/30 00:25:53;;;;;;;;;0.00;0.00;;;;;;;;5028668;28;45572;-82
2021/12/30 00:28:19;;;;;;;;;0.00;0.00;;;;;;;;5025390;28;45566;-81
2021/12/30 00:30:47;;;;;;;;;0.00;0.00;;;;;;;;5028731;28;46704;-81
2021/12/30 00:33:13;;;;;;;;;0.00;0.00;;;;;;;;5028507;28;45462;-81
2021/12/30 00:35:38;;;;;;;;;0.50;0.00;;;;;;;;5028831;28;45607;-81
2021/12/30 00:38:05;;;;;;;;;0.00;0.00;;;;;;;;5026967;28;45570;-81
2021/12/30 00:40:31;;;;;;;;;1.50;0.25;;;;;;;;5028991;28;46505;-81
2021/12/30 00:42:56;;;;;;;;;0.00;0.00;;;;;;;;5029225;28;45529;-81
2021/12/30 00:45:21;;;;;;;;;0.00;0.00;;;;;;;;5027190;28;45571;-81
2021/12/30 00:47:46;;;;;;;;;0.67;0.00;;;;;;;;5030850;28;45503;-81
2021/12/30 00:50:12;;;;;;;;;2.00;0.00;;;;;;;;5026736;28;45716;-82
2021/12/30 00:52:38;;;;;;;;;0.25;0.25;;;;;;;;5025434;28;45562;-79
2021/12/30 00:55:04;;;;;;;;;0.00;0.00;;;;;;;;5026873;28;45610;-80
2021/12/30 00:57:29;;;;;;;;;1.00;1.00;;;;;;;;5026589;28;45750;-82
2021/12/30 00:59:55;;;;;;;;;0.00;0.00;;;;;;;;5029358;28;45539;-80
2021/12/30 01:02:20;;;;;;;;;0.67;0.00;;;;;;;;5026680;28;45542;-81
2021/12/30 01:04:45;;;;;;;;;0.00;0.00;;;;;;;;5026266;28;45562;-82
2021/12/30 01:07:10;;;;;;;;;0.00;0.00;;;;;;;;5027715;28;45609;-82
2021/12/30 01:09:36;;;;;;;;;0.33;0.33;;;;;;;;5026475;28;47286;-81
2021/12/30 01:12:02;;;;;;;;;0.00;0.00;;;;;;;;5031608;28;45403;-81
2021/12/30 01:14:29;;;;;;;;;0.75;0.75;;;;;;;;5028038;28;45412;-81
2021/12/30 01:16:58;;;;;;;;;1.00;1.00;;;;;;;;5025345;28;45891;-81
2021/12/30 01:19:42;;;;;;;;;0.00;0.00;;;;;;;;5026935;28;47459;-82
2021/12/30 01:22:09;;;;;;;;;0.50;0.00;;;;;;;;5028775;28;45880;-81
2021/12/30 01:24:35;;;;;;;;;0.25;0.25;;;;;;;;5024721;28;45843;-81
2021/12/30 01:27:00;;;;;;;;;0.00;0.00;;;;;;;;5029815;28;45481;-82
2021/12/30 01:29:29;;;;;;;;;1.00;1.00;;;;;;;;5027020;28;47196;-81
2021/12/30 01:31:54;;;;;;;;;1.50;0.25;;;;;;;;5026055;28;45789;-82
2021/12/30 01:34:19;;;;;;;;;0.00;0.00;;;;;;;;5027742;28;45624;-82
2021/12/30 01:36:44;;;;;;;;;1.00;1.00;;;;;;;;5028120;28;45553;-81
2021/12/30 01:39:10;;;;;;;;;1.00;1.00;;;;;;;;5028449;28;45815;-81
2021/12/30 01:41:35;;;;;;;;;1.67;1.00;;;;;;;;5029683;28;45477;-81
2021/12/30 01:44:00;;;;;;;;;0.67;0.67;;;;;;;;5030062;28;45509;-81
2021/12/30 01:46:35;;;;;;;;;1.00;1.00;;;;;;;;5031749;28;45504;-81
2021/12/30 01:49:00;;;;;;;;;0.00;0.00;;;;;;;;5030873;28;45553;-81
2021/12/30 01:51:25;;;;;;;;;1.00;1.00;;;;;;;;5029567;28;45631;-82
2021/12/30 01:53:51;;;;;;;;;1.00;1.00;;;;;;;;5033326;28;45565;-81
2021/12/30 01:56:16;;;;;;;;;0.00;0.00;;;;;;;;5028300;28;45557;-81
2021/12/30 01:58:41;;;;;;;;;0.67;0.67;;;;;;;;5029135;28;46541;-81
2021/12/30 02:01:06;;;;;;;;;0.33;0.33;;;;;;;;5031463;28;45597;-81
2021/12/30 02:03:32;;;;;;;;;0.00;0.00;;;;;;;;5032040;28;46011;-82
2021/12/30 02:05:57;;;;;;;;;2.00;0.00;;;;;;;;5033530;28;45513;-81
2021/12/30 02:08:22;;;;;;;;;0.00;0.00;;;;;;;;5028194;28;48725;-81
2021/12/30 02:10:49;;;;;;;;;0.00;0.00;;;;;;;;5031168;28;45422;-81
2021/12/30 02:13:16;;;;;;;;;1.00;0.00;;;;;;;;5031446;28;45612;-82
2021/12/30 02:15:42;;;;;;;;;1.00;1.00;;;;;;;;5031563;28;45684;-81
2021/12/30 02:18:07;;;;;;;;;1.75;0.00;;;;;;;;5032046;28;46111;-81
2021/12/30 02:20:37;;;;;;;;;0.00;0.00;;;;;;;;5028491;28;46012;-81
2021/12/30 02:23:03;;;;;;;;;0.00;0.00;;;;;;;;5025874;28;46027;-81
2021/12/30 02:25:29;;;;;;;;;0.00;0.00;;;;;;;;5026854;28;45483;-81
2021/12/30 02:27:54;;;;;;;;;2.00;0.00;;;;;;;;5029163;28;46278;-82
2021/12/30 02:30:19;;;;;;;;;0.67;0.00;;;;;;;;5029419;28;45411;-81
2021/12/30 02:32:44;;;;;;;;;0.00;0.00;;;;;;;;5028275;28;45601;-82
2021/12/30 02:35:11;;;;;;;;;1.75;0.00;;;;;;;;5030870;28;45566;-82
2021/12/30 02:37:36;;;;;;;;;0.00;0.00;;;;;;;;5030265;28;47132;-82
2021/12/30 02:40:02;;;;;;;;;0.00;0.00;;;;;;;;5029764;28;46304;-82
2021/12/30 02:42:27;;;;;;;;;2.00;0.50;;;;;;;;5026195;28;45584;-81
2021/12/30 02:44:52;;;;;;;;;0.00;0.00;;;;;;;;5032437;28;45479;-81
2021/12/30 02:47:18;;;;;;;;;0.00;0.00;;;;;;;;5030482;28;47351;-81
2021/12/30 02:49:43;;;;;;;;;0.00;0.00;;;;;;;;5029300;28;45395;-81
2021/12/30 02:52:08;;;;;;;;;0.00;0.00;;;;;;;;5028519;28;45603;-82
2021/12/30 02:54:33;;;;;;;;;1.00;0.00;;;;;;;;5029239;28;45737;-82
2021/12/30 02:56:59;;;;;;;;;0.00;0.00;;;;;;;;5032288;28;46092;-82
2021/12/30 02:59:24;;;;;;;;;0.00;0.00;;;;;;;;5030036;28;45579;-81
2021/12/30 03:01:49;;;;;;;;;0.00;0.00;;;;;;;;5024811;28;45685;-82
2021/12/30 03:04:15;;;;;;;;;0.00;0.00;;;;;;;;5031236;28;45441;-81
2021/12/30 03:06:40;;;;;;;;;0.00;0.00;;;;;;;;5037097;28;48532;-82
2021/12/30 03:09:05;;;;;;;;;0.00;0.00;;;;;;;;5029663;28;45553;-81
2021/12/30 03:11:32;;;;;;;;;0.00;0.00;;;;;;;;5028287;28;45838;-82
2021/12/30 03:13:58;;;;;;;;;0.00;0.00;;;;;;;;5030610;28;45739;-82
2021/12/30 03:16:25;;;;;;;;;0.00;0.00;;;;;;;;5030933;28;45646;-81
2021/12/30 03:18:50;;;;;;;;;0.00;0.00;;;;;;;;5033017;28;45574;-81
2021/12/30 03:21:18;;;;;;;;;1.00;0.00;;;;;;;;5026559;28;45567;-82
2021/12/30 03:23:43;;;;;;;;;0.50;0.00;;;;;;;;5030558;28;45567;-81
2021/12/30 03:26:09;;;;;;;;;0.00;0.00;;;;;;;;5026843;28;48234;-81
2021/12/30 03:28:35;;;;;;;;;0.00;0.00;;;;;;;;5029282;28;45496;-81
2021/12/30 03:31:00;;;;;;;;;0.75;0.00;;;;;;;;5030885;28;45736;-81
2021/12/30 03:33:27;;;;;;;;;0.00;0.00;;;;;;;;5015697;28;45380;-82
2021/12/30 03:35:52;;;;;;;;;0.00;0.00;;;;;;;;5032229;28;45663;-82
2021/12/30 03:38:18;;;;;;;;;0.00;0.00;;;;;;;;5027194;28;45546;-81
2021/12/30 03:40:43;;;;;;;;;0.00;0.00;;;;;;;;5028978;28;45537;-81
2021/12/30 03:43:08;;;;;;;;;0.00;0.00;;;;;;;;5029291;28;45617;-81
2021/12/30 03:45:34;;;;;;;;;0.00;0.00;;;;;;;;5029277;28;46634;-81
2021/12/30 03:47:59;;;;;;;;;0.00;0.00;;;;;;;;5028326;28;45521;-80
2021/12/30 03:50:27;;;;;;;;;1.00;0.00;;;;;;;;5023384;28;45609;-81
2021/12/30 03:52:54;;;;;;;;;0.00;0.00;;;;;;;;5029481;28;45545;-82
2021/12/30 03:55:20;;;;;;;;;0.00;0.00;;;;;;;;5025349;28;45593;-80
2021/12/30 03:57:46;;;;;;;;;0.00;0.00;;;;;;;;5030384;28;45976;-81
2021/12/30 04:00:12;;;;;;;;;1.25;0.00;;;;;;;;5029726;28;45773;-81
2021/12/30 04:02:38;;;;;;;;;0.00;0.00;;;;;;;;5026002;28;45610;-81
2021/12/30 04:05:03;;;;;;;;;0.00;0.00;;;;;;;;5025410;28;45518;-82
2021/12/30 04:07:28;;;;;;;;;0.50;0.00;;;;;;;;5026655;28;45516;-81
2021/12/30 04:09:53;;;;;;;;;0.00;0.00;;;;;;;;5028671;28;45784;-82
2021/12/30 04:12:19;;;;;;;;;0.00;0.00;;;;;;;;5023579;28;45523;-81
2021/12/30 04:14:44;;;;;;;;;0.50;0.00;;;;;;;;5031038;28;48204;-81
2021/12/30 04:17:09;;;;;;;;;0.00;0.00;;;;;;;;5020857;28;45612;-81
2021/12/30 04:19:35;;;;;;;;;0.75;0.00;;;;;;;;5018926;28;45526;-81
2021/12/30 04:22:00;;;;;;;;;0.00;0.00;;;;;;;;5025799;28;45539;-81
2021/12/30 04:24:25;;;;;;;;;0.00;0.00;;;;;;;;5031059;28;45493;-81
2021/12/30 04:26:51;;;;;;;;;0.50;0.00;;;;;;;;5030667;28;45654;-81
2021/12/30 04:29:17;;;;;;;;;0.00;0.00;;;;;;;;5021520;28;45495;-81
2021/12/30 04:31:42;;;;;;;;;0.00;0.00;;;;;;;;5016466;28;45530;-81
2021/12/30 04:34:07;;;;;;;;;1.00;0.00;;;;;;;;5017196;28;45434;-81
2021/12/30 04:36:33;;;;;;;;;0.00;0.00;;;;;;;;5029304;28;45474;-81
2021/12/30 04:38:58;;;;;;;;;0.00;0.00;;;;;;;;5030881;28;45598;-82
2021/12/30 04:41:23;;;;;;;;;0.00;0.00;;;;;;;;5027597;28;45637;-81
2021/12/30 04:43:48;;;;;;;;;0.00;0.00;;;;;;;;5029558;28;47986;-81
2021/12/30 04:46:13;;;;;;;;;1.00;0.00;;;;;;;;5027832;28;45589;-81
2021/12/30 04:48:39;;;;;;;;;0.00;0.00;;;;;;;;5013996;28;45388;-81
2021/12/30 04:51:04;;;;;;;;;0.25;0.00;;;;;;;;5032145;28;45636;-81
2021/12/30 04:53:29;;;;;;;;;0.00;0.00;;;;;;;;5024900;28;49890;-81
2021/12/30 04:55:55;;;;;;;;;0.00;0.00;;;;;;;;5022584;28;45568;-81
2021/12/30 04:58:20;;;;;;;;;0.00;0.00;;;;;;;;5014186;28;45624;-81
2021/12/30 05:00:45;;;;;;;;;0.00;0.00;;;;;;;;5027436;28;45498;-79
2021/12/30 05:03:13;;;;;;;;;0.00;0.00;;;;;;;;5018172;28;46449;-81
2021/12/30 05:05:49;;;;;;;;;0.00;0.00;;;;;;;;5018153;28;45719;-81
2021/12/30 05:08:15;;;;;;;;;0.00;0.00;;;;;;;;5022712;28;45564;-81
2021/12/30 05:10:41;;;;;;;;;0.00;0.00;;;;;;;;5025117;28;45911;-79
2021/12/30 05:13:07;;;;;;;;;0.00;0.00;;;;;;;;5023295;28;47325;-80
2021/12/30 05:15:33;;;;;;;;;1.50;0.00;;;;;;;;5027863;28;45718;-81
2021/12/30 05:17:58;;;;;;;;;0.00;0.00;;;;;;;;5032378;28;45558;-81
2021/12/30 05:20:24;;;;;;;;;3.25;0.00;;;;;;;;5030962;28;45712;-80
2021/12/30 05:22:49;;;;;;;;;0.00;0.00;;;;;;;;5025574;28;46705;-81
2021/12/30 05:25:16;;;;;;;;;4.50;0.00;;;;;;;;5027349;28;45795;-80
2021/12/30 05:27:41;;;;;;;;;0.00;0.00;;;;;;;;5044426;28;45544;-81
2021/12/30 05:30:08;;;;;;;;;0.75;0.00;;;;;;;;5029869;28;45478;-81
2021/12/30 05:32:34;;;;;;;;;0.75;0.00;;;;;;;;5032598;28;46824;-81
2021/12/30 05:35:00;;;;;;;;;0.00;0.00;;;;;;;;5033863;28;45441;-81
2021/12/30 05:37:25;;;;;;;;;0.00;0.00;;;;;;;;5028536;28;45348;-81
2021/12/30 05:39:50;;;;;;;;;0.00;0.00;;;;;;;;5032417;28;45590;-82
2021/12/30 05:42:15;;;;;;;;;0.67;0.33;;;;;;;;5032312;28;45612;-81
2021/12/30 05:44:41;;;;;;;;;1.00;0.67;;;;;;;;5034518;28;45808;-81
2021/12/30 05:47:06;;;;;;;;;1.00;0.75;;;;;;;;5025269;28;45562;-81
2021/12/30 05:49:31;;;;;;;;;3.00;0.00;;;;;;;;5023988;28;45522;-81
2021/12/30 05:51:56;;;;;;;;;0.67;0.67;;;;;;;;5020094;28;46049;-82
2021/12/30 05:54:21;;;;;;;;;0.67;0.67;;;;;;;;5031939;28;46125;-81
2021/12/30 05:56:47;;;;;;;;;0.00;0.00;;;;;;;;5033949;28;45443;-81
2021/12/30 05:59:12;;;;;;;;;5.00;1.00;;;;;;;;5028497;28;45632;-81
2021/12/30 06:01:37;;;;;;;;;1.67;0.00;;;;;;;;5025537;28;47296;-81
2021/12/30 06:04:03;;;;;;;;;1.67;0.00;;;;;;;;5026847;28;45452;-81
2021/12/30 06:06:28;;;;;;;;;2.00;1.00;;;;;;;;5031753;28;45416;-81
2021/12/30 06:08:55;;;;;;;;;3.33;0.00;;;;;;;;5025606;28;45771;-81
2021/12/30 06:11:20;;;;;;;;;0.00;0.00;;;;;;;;5029669;28;46439;-80
2021/12/30 06:13:45;;;;;;;;;0.75;0.75;;;;;;;;5026726;28;45494;-81
2021/12/30 06:16:10;;;;;;;;;1.67;1.00;;;;;;;;5030240;28;45482;-81
2021/12/30 06:18:36;;;;;;;;;1.00;1.00;;;;;;;;5019386;28;45400;-80
2021/12/30 06:21:01;;;;;;;;;2.00;0.00;;;;;;;;5026487;28;45540;-81
2021/12/30 06:23:26;;;;;;;;;2.00;0.00;;;;;;;;5024598;28;45681;-81
2021/12/30 06:25:51;;;;;;;;;3.33;0.67;;;;;;;;5043996;28;45462;-81
2021/12/30 06:28:17;;;;;;;;;2.50;1.50;;;;;;;;5028991;28;51040;-81
2021/12/30 06:30:42;;;;;;;;;1.25;0.25;;;;;;;;5027280;28;45437;-81
2021/12/30 06:33:07;;;;;;;;;1.33;0.00;;;;;;;;5035856;28;45546;-80
2021/12/30 06:35:34;;;;;;;;;2.33;0.00;;;;;;;;5030966;28;45597;-81
2021/12/30 06:38:00;;;;;;;;;1.75;1.00;;;;;;;;5024132;28;45525;-81
2021/12/30 06:40:25;;;;;;;;;1.25;0.00;;;;;;;;5023127;28;45488;-81
2021/12/30 06:42:50;;;;;;;;;1.00;1.00;;;;;;;;5014510;28;45588;-81
2021/12/30 06:45:16;;;;;;;;;3.00;1.25;;;;;;;;5025797;28;45403;-80
2021/12/30 06:47:42;;;;;;;;;1.00;1.00;;;;;;;;5020094;28;45521;-81
2021/12/30 06:50:11;;;;;;;;;4.50;0.50;;;;;;;;5026892;28;46323;-80
2021/12/30 06:52:36;;;;;;;;;2.00;1.00;;;;;;;;5026390;28;45439;-79
2021/12/30 06:55:02;;;;;;;;;1.00;1.00;;;;;;;;5023478;28;45475;-81
2021/12/30 06:57:28;;;;;;;;;1.00;1.00;;;;;;;;5027921;28;45457;-81
2021/12/30 06:59:54;;;;;;;;;4.75;2.00;;;;;;;;5028815;28;45465;-82
2021/12/30 07:02:19;;;;;;;;;4.00;2.00;;;;;;;;5024996;28;45492;-81
2021/12/30 07:04:44;;;;;;;;;1.67;1.00;;;;;;;;5029369;28;45343;-81
2021/12/30 07:07:09;;;;;;;;;5.00;2.00;;;;;;;;5029100;28;45845;-81
2021/12/30 07:09:35;;;;;;;;;2.00;2.00;;;;;;;;5029608;28;45553;-81
2021/12/30 07:12:00;;;;;;;;;3.00;2.00;;;;;;;;5028691;28;45317;-81
2021/12/30 07:14:25;;;;;;;;;6.00;2.33;;;;;;;;5024907;28;45678;-81
2021/12/30 07:16:51;;;;;;;;;3.00;2.00;;;;;;;;5022857;28;45645;-81
2021/12/30 07:19:16;;;;;;;;;4.50;1.25;;;;;;;;5025294;28;45416;-82
2021/12/30 07:21:42;;;;;;;;;4.00;1.25;;;;;;;;5029405;28;45620;-81
2021/12/30 07:24:08;;;;;;;;;4.50;3.00;;;;;;;;5019333;28;45632;-80
2021/12/30 07:26:33;;;;;;;;;3.00;1.00;;;;;;;;5027411;28;45372;-80
2021/12/30 07:28:59;;;;;;;;;8.00;2.00;;;;;;;;5025688;28;45542;-80
2021/12/30 07:31:25;;;;;;;;;2.50;2.50;;;;;;;;5028725;28;45730;-81
2021/12/30 07:33:50;;;;;;;;;9.00;3.75;;;;;;;;5016483;28;45716;-81
2021/12/30 07:36:15;;;;;;;;;4.00;2.33;;;;;;;;5031400;28;45438;-81
2021/12/30 07:38:41;;;;;;;;;7.50;2.50;;;;;;;;5024220;28;48071;-81
2021/12/30 07:41:06;;;;;;;;;1.33;1.00;;;;;;;;5025946;28;45505;-81
2021/12/30 07:43:32;;;;;;;;;3.33;2.00;;;;;;;;5028900;28;45613;-81
2021/12/30 07:45:57;;;;;;;;;4.25;2.25;;;;;;;;5029778;28;45811;-81
2021/12/30 07:48:22;;;;;;;;;3.33;1.67;;;;;;;;5030219;28;46410;-81
2021/12/30 07:50:49;;;;;;;;;5.75;3.75;;;;;;;;5024009;28;45503;-81
2021/12/30 07:53:15;;;;;;;;;3.75;2.00;;;;;;;;5027916;28;45445;-82
2021/12/30 07:55:40;;;;;;;;;5.75;1.25;;;;;;;;5028179;28;48673;-81
2021/12/30 07:58:05;;;;;;;;;2.67;1.33;;;;;;;;5028355;28;46304;-81
2021/12/30 08:00:30;;;;;;;;;4.33;1.67;;;;;;;;5031039;28;45376;-81
2021/12/30 08:02:56;;;;;;;;;4.50;2.50;;;;;;;;5027021;28;45372;-81
2021/12/30 08:05:21;;;;;;;;;3.33;3.00;;;;;;;;5023259;28;45586;-81
2021/12/30 08:07:47;;;;;;;;;7.75;1.75;;;;;;;;5024763;28;46345;-81
2021/12/30 08:10:14;;;;;;;;;4.50;3.00;;;;;;;;5024606;28;45468;-81
2021/12/30 08:12:41;;;;;;;;;3.50;1.50;;;;;;;;5028869;28;45405;-81
2021/12/30 08:15:06;;;;;;;;;6.50;2.00;;;;;;;;5028669;28;45582;-81
2021/12/30 08:17:32;;;;;;;;;5.25;0.75;;;;;;;;5025428;28;45676;-81
2021/12/30 08:19:57;;;;;;;;;3.75;2.25;;;;;;;;5021857;28;45549;-81
2021/12/30 08:22:22;;;;;;;;;11.67;3.33;;;;;;;;5027598;28;45478;-82
2021/12/30 08:24:47;;;;;;;;;3.33;2.00;;;;;;;;5028797;28;45547;-81
2021/12/30 08:27:13;;;;;;;;;2.67;1.00;;;;;;;;5030359;28;47752;-82
2021/12/30 08:29:38;;;;;;;;;2.50;1.75;;;;;;;;5028652;28;45455;-81
2021/12/30 08:32:06;;;;;;;;;3.00;2.50;;;;;;;;5027632;28;45343;-82
2021/12/30 08:34:31;;;;;;;;;1.50;1.25;;;;;;;;5028387;28;45573;-81
2021/12/30 08:36:57;;;;;;;;;3.50;2.00;;;;;;;;5027515;28;47012;-81
2021/12/30 08:39:22;;;;;;;;;18.67;9.00;;;;;;;;5022560;28;45713;-82
2021/12/30 08:41:47;;;;;;;;;5.00;2.00;;;;;;;;5029806;28;45449;-81
2021/12/30 08:44:12;;;;;;;;;6.00;2.00;;;;;;;;5024186;28;45671;-81
2021/12/30 08:46:38;;;;;;;;;5.67;3.00;;;;;;;;5029873;28;47679;-81
2021/12/30 08:49:03;;;;;;;;;6.67;3.33;;;;;;;;5028936;28;45624;-81
2021/12/30 08:51:29;;;;;;;;;4.67;3.00;;;;;;;;5029828;28;45499;-81
2021/12/30 08:53:55;;;;;;;;;4.00;1.75;;;;;;;;5031123;28;45589;-82
2021/12/30 08:56:21;;;;;;;;;4.50;2.00;;;;;;;;5030120;28;45459;-81
2021/12/30 08:58:47;;;;;;;;;6.25;3.75;;;;;;;;5032278;28;45611;-81
2021/12/30 09:01:12;;;;;;;;;13.25;4.75;;;;;;;;5032309;28;45541;-81
2021/12/30 09:03:38;;;;;;;;;4.50;3.75;;;;;;;;5033330;28;45583;-81
2021/12/30 09:06:05;;;;;;;;;6.33;4.00;;;;;;;;5034580;28;46134;-82
2021/12/30 09:08:30;;;;;;;;;3.00;2.00;;;;;;;;5029364;28;47763;-81
2021/12/30 09:10:56;;;;;;;;;5.75;4.00;;;;;;;;5031290;28;45347;-81
2021/12/30 09:13:21;;;;;;;;;3.00;2.00;;;;;;;;5029670;28;45412;-82
2021/12/30 09:15:47;;;;;;;;;3.67;3.00;;;;;;;;5032332;28;46566;-81
2021/12/30 09:18:13;;;;;;;;;4.00;4.00;;;;;;;;5031478;28;45782;-81
2021/12/30 09:20:39;;;;;;;;;8.25;3.00;;;;;;;;5031581;28;45644;-82
2021/12/30 09:23:05;;;;;;;;;2.00;1.25;;;;;;;;5023463;28;45527;-82
2021/12/30 09:25:31;;;;;;;;;2.50;1.00;;;;;;;;5031599;28;49727;-83
2021/12/30 09:27:57;;;;;;;;;2.00;2.00;;;;;;;;5031147;28;45657;-84
2021/12/30 09:30:22;;;;;;;;;4.00;2.50;;;;;;;;5028985;28;45845;-83
2021/12/30 09:32:49;;;;;;;;;5.25;2.25;;;;;;;;5022636;28;45463;-83
2021/12/30 09:35:14;;;;;;;;;2.00;1.00;;;;;;;;5029965;28;46684;-83
2021/12/30 09:37:40;;;;;;;;;3.50;2.00;;;;;;;;5032613;28;45701;-83
2021/12/30 09:40:10;;;;;;;;;3.75;2.00;;;;;;;;5030135;28;45478;-83
2021/12/30 09:42:36;;;;;;;;;4.00;2.00;;;;;;;;5028923;28;47147;-83
2021/12/30 09:45:02;;;;;;;;;4.50;3.00;;;;;;;;5033284;28;48128;-83
2021/12/30 09:47:27;;;;;;;;;1.75;1.75;;;;;;;;5024281;28;46319;-83
2021/12/30 09:49:53;;;;;;;;;3.00;1.00;;;;;;;;5032862;28;45455;-84
2021/12/30 09:52:19;;;;;;;;;8.50;4.00;;;;;;;;5030800;28;45620;-83
2021/12/30 09:54:44;;;;;;;;;6.00;2.25;;;;;;;;5033151;28;45695;-83
2021/12/30 09:57:10;;;;;;;;;5.50;2.75;;;;;;;;5034472;28;45761;-83
2021/12/30 09:59:35;;;;;;;;;3.75;2.75;;;;;;;;5027919;28;46028;-83
2021/12/30 10:02:00;;;;;;;;;7.00;3.75;;;;;;;;5029380;28;45431;-83
2021/12/30 10:04:30;;;;;;;;;6.00;3.00;;;;;;;;5029810;28;46079;-83
2021/12/30 10:06:56;;;;;;;;;7.00;2.25;;;;;;;;5029899;28;45925;-83
2021/12/30 10:09:29;;;;;;;;;2.25;2.00;;;;;;;;5028370;28;45614;-83
2021/12/30 10:12:00;;;;;;;;;2.25;2.00;;;;;;;;5027900;28;45890;-82
2021/12/30 10:14:33;;;;;;;;;6.00;2.00;;;;;;;;5021616;28;48310;-82
2021/12/30 10:17:17;;;;;;;;;3.25;2.00;;;;;;;;5031968;28;45490;-83
2021/12/30 10:19:43;;;;;;;;;5.50;2.25;;;;;;;;5029435;28;45573;-83
2021/12/30 10:22:12;;;;;;;;;2.00;1.00;;;;;;;;5027207;28;45521;-82
2021/12/30 10:24:38;;;;;;;;;1.75;1.25;;;;;;;;5029175;28;48456;-84
2021/12/30 10:27:04;;;;;;;;;2.25;1.50;;;;;;;;5027198;28;46002;-83
2021/12/30 10:29:39;;;;;;;;;8.25;1.25;;;;;;;;5030253;28;45451;-83
2021/12/30 10:32:12;;;;;;;;;2.00;2.00;;;;;;;;5028733;28;45527;-78
2021/12/30 10:34:37;;;;;;;;;2.00;2.00;;;;;;;;5028883;28;45743;-79
2021/12/30 10:37:02;;;;;;;;;2.67;1.33;;;;;;;;5028730;28;45894;-83
2021/12/30 10:39:27;;;;;;;;;1.00;1.00;;;;;;;;5019096;28;45641;-83
2021/12/30 10:42:16;;;;;;;;;3.00;2.00;;;;;;;;5030399;28;45479;-70
2021/12/30 10:44:52;;;;;;;;;6.00;3.00;;;;;;;;5035307;28;45647;-82
2021/12/30 10:47:18;;;;;;;;;4.25;2.00;;;;;;;;5030151;28;45568;-84
2021/12/30 10:49:43;;;;;;;;;5.50;1.00;;;;;;;;5023283;28;45726;-83
2021/12/30 10:52:11;;;;;;;;;7.25;2.00;;;;;;;;5026559;28;45554;-82
2021/12/30 10:54:37;;;;;;;;;4.75;1.75;;;;;;;;5029599;28;47455;-82
2021/12/30 10:57:07;;;;;;;;;3.25;1.25;;;;;;;;5036240;28;48082;-82
2021/12/30 10:59:39;;;;;;;;;4.50;2.00;;;;;;;;5036061;28;45540;-82
2021/12/30 11:02:18;;;;;;;;;1.00;1.00;;;;;;;;5029518;28;45581;-82
2021/12/30 11:04:49;;;;;;;;;2.50;1.25;;;;;;;;5015690;28;45636;-82
2021/12/30 11:07:18;;;;;;;;;2.75;1.00;;;;;;;;5027728;28;46072;-82
2021/12/30 11:09:54;;;;;;;;;4.25;1.00;;;;;;;;5031310;28;45753;-82
2021/12/30 11:12:26;;;;;;;;;1.25;1.25;;;;;;;;5034231;28;45542;-82
2021/12/30 11:14:52;;;;;;;;;2.00;1.00;;;;;;;;5042854;28;45389;-82
2021/12/30 11:17:22;;;;;;;;;5.75;2.00;;;;;;;;5034193;28;46203;-82
2021/12/30 11:19:47;;;;;;;;;3.50;1.00;;;;;;;;5038741;28;45466;-82
2021/12/30 11:22:14;;;;;;;;;3.00;1.00;;;;;;;;5033731;28;45496;-82
2021/12/30 11:24:40;;;;;;;;;1.00;0.00;;;;;;;;5033748;28;47228;-81
2021/12/30 11:27:08;;;;;;;;;2.25;1.75;;;;;;;;5039791;28;45728;-81
2021/12/30 11:29:34;;;;;;;;;5.00;1.50;;;;;;;;5033956;28;45890;-82
2021/12/30 11:31:59;;;;;;;;;2.25;2.00;;;;;;;;5032479;28;45554;-81
2021/12/30 11:34:25;;;;;;;;;3.25;2.00;;;;;;;;5025470;28;45671;-82
2021/12/30 11:36:50;;;;;;;;;5.00;2.00;;;;;;;;5031858;28;45432;-81
2021/12/30 11:39:18;;;;;;;;;3.50;1.00;;;;;;;;5029224;28;47269;-83
2021/12/30 11:41:45;;;;;;;;;3.00;2.00;;;;;;;;5036694;28;45435;-83
2021/12/30 11:44:30;;;;;;;;;2.00;0.50;;;;;;;;5033964;28;45615;-81
2021/12/30 11:47:21;;;;;;;;;0.00;0.00;;;;;;;;5025884;28;45886;-83
2021/12/30 11:49:54;;;;;;;;;2.75;1.00;;;;;;;;5016451;28;45504;-83
2021/12/30 11:52:38;;;;;;;;;4.25;2.00;;;;;;;;5027298;28;46969;-82
2021/12/30 11:55:24;;;;;;;;;4.00;1.00;;;;;;;;5021121;28;47446;-82
2021/12/30 11:57:49;;;;;;;;;2.00;2.00;;;;;;;;5025398;28;46026;-82
2021/12/30 12:00:33;;;;;;;;;2.67;2.00;;;;;;;;5029661;28;46708;-82
2021/12/30 12:03:02;;;;;;;;;5.50;2.00;;;;;;;;5023581;28;45828;-83
2021/12/30 12:05:42;;;;;;;;;1.00;1.00;;;;;;;;5027758;28;46608;-83
2021/12/30 12:08:12;;;;;;;;;4.50;1.00;;;;;;;;5027218;28;46753;-83
2021/12/30 12:10:38;;;;;;;;;3.00;1.00;;;;;;;;5029220;28;45630;-83
2021/12/30 12:13:22;;;;;;;;;2.00;2.00;;;;;;;;5026818;28;45558;-82
2021/12/30 12:15:47;;;;;;;;;2.75;1.75;;;;;;;;5027735;28;46648;-83
2021/12/30 12:18:15;;;;;;;;;2.50;1.00;;;;;;;;5030708;28;45476;-81
2021/12/30 12:20:50;;;;;;;;;4.25;1.00;;;;;;;;5027463;28;45917;-81
2021/12/30 12:23:33;;;;;;;;;1.00;1.00;;;;;;;;5024125;28;45498;-81
2021/12/30 12:26:15;;;;;;;;;2.00;1.00;;;;;;;;5027672;28;45695;-83
2021/12/30 12:28:41;;;;;;;;;2.50;1.00;;;;;;;;5057590;28;45692;-81
2021/12/30 12:31:07;;;;;;;;;1.00;0.75;;;;;;;;5011139;28;45471;-83
2021/12/30 12:33:34;;;;;;;;;1.00;1.00;;;;;;;;5018886;28;46033;-83
2021/12/30 12:36:01;;;;;;;;;3.25;3.00;;;;;;;;5031057;28;47622;-82
2021/12/30 12:38:35;;;;;;;;;2.00;2.00;;;;;;;;5023312;28;45811;-83
2021/12/30 12:41:15;;;;;;;;;3.00;2.00;;;;;;;;5027503;28;45578;-83
2021/12/30 12:43:40;;;;;;;;;0.75;0.75;;;;;;;;5023607;28;45681;-83
2021/12/30 12:46:06;;;;;;;;;4.25;1.00;;;;;;;;5026421;28;46761;-83
2021/12/30 12:48:33;;;;;;;;;2.50;1.25;;;;;;;;5028770;28;45437;-83
2021/12/30 12:50:59;;;;;;;;;1.50;1.00;;;;;;;;5030567;28;45349;-82
2021/12/30 12:53:24;;;;;;;;;3.00;1.00;;;;;;;;5027050;28;45585;-82
2021/12/30 12:55:58;;;;;;;;;1.33;0.00;;;;;;;;5027021;28;47889;-82
2021/12/30 12:58:24;;;;;;;;;2.25;2.00;;;;;;;;5019938;28;45404;-82
2021/12/30 13:00:50;;;;;;;;;4.50;2.00;;;;;;;;5029876;28;45598;-82
2021/12/30 13:03:16;;;;;;;;;4.00;1.00;;;;;;;;5014970;28;45442;-82
2021/12/30 13:06:00;;;;;;;;;1.50;0.00;;;;;;;;5023385;28;45887;-81
2021/12/30 13:08:25;;;;;;;;;1.00;1.00;;;;;;;;5026157;28;45685;-82
2021/12/30 13:10:52;;;;;;;;;4.00;2.00;;;;;;;;5025624;28;45507;-82
2021/12/30 13:13:30;;;;;;;;;2.50;1.00;;;;;;;;5027587;28;45610;-81
2021/12/30 13:15:56;;;;;;;;;2.75;1.00;;;;;;;;5040215;28;47626;-82
2021/12/30 13:18:22;;;;;;;;;1.50;1.50;;;;;;;;5019023;28;45946;-81
2021/12/30 13:20:48;;;;;;;;;3.33;1.33;;;;;;;;5027344;28;45540;-82
2021/12/30 13:23:24;;;;;;;;;1.50;1.50;;;;;;;;5026486;28;51293;-81
2021/12/30 13:26:04;;;;;;;;;1.00;1.00;;;;;;;;5024499;28;45549;-84
2021/12/30 13:28:29;;;;;;;;;4.25;2.00;;;;;;;;5027668;28;46446;-82
2021/12/30 13:31:13;;;;;;;;;2.75;1.00;;;;;;;;5023461;28;45400;-82
2021/12/30 13:33:50;;;;;;;;;3.00;2.00;;;;;;;;5026532;28;45833;-83
2021/12/30 13:36:15;;;;;;;;;3.00;0.25;;;;;;;;5026292;28;46273;-83
2021/12/30 13:38:41;;;;;;;;;1.00;1.00;;;;;;;;5045934;28;45760;-84
2021/12/30 13:41:11;;;;;;;;;1.25;1.25;;;;;;;;5030456;28;45572;-81
2021/12/30 13:43:36;;;;;;;;;1.50;1.00;;;;;;;;5030945;28;45746;-83
2021/12/30 13:46:02;;;;;;;;;2.00;2.00;;;;;;;;5032304;28;46404;-81
2021/12/30 13:48:29;;;;;;;;;3.25;1.00;;;;;;;;5029784;28;45837;-79
2021/12/30 13:50:55;;;;;;;;;3.75;1.50;;;;;;;;5032646;28;45564;-82
2021/12/30 13:53:21;;;;;;;;;1.00;1.00;;;;;;;;5032443;28;45596;-83
2021/12/30 13:55:48;;;;;;;;;0.00;0.00;;;;;;;;5031160;28;45966;-83
2021/12/30 13:58:16;;;;;;;;;1.00;1.00;;;;;;;;5032347;28;45714;-82
2021/12/30 14:00:49;;;;;;;;;2.00;1.50;;;;;;;;5029265;28;46516;-81
2021/12/30 14:03:17;;;;;;;;;3.00;0.00;;;;;;;;5030524;28;45684;-82
2021/12/30 14:05:45;;;;;;;;;1.00;1.00;;;;;;;;5028254;28;46340;-81
2021/12/30 14:08:12;;;;;;;;;2.00;1.00;;;;;;;;5022836;28;45908;-82
2021/12/30 14:10:43;;;;;;;;;1.00;1.00;;;;;;;;5020824;28;45592;-83
2021/12/30 14:13:08;;;;;;;;;1.25;1.00;;;;;;;;5030930;28;45633;-82
2021/12/30 14:15:35;;;;;;;;;2.00;1.00;;;;;;;;5019327;28;45983;-82
2021/12/30 14:18:02;;;;;;;;;2.25;1.00;;;;;;;;5025818;28;45427;-82
2021/12/30 14:20:28;;;;;;;;;3.00;1.00;;;;;;;;5020573;28;45423;-83
2021/12/30 14:22:53;;;;;;;;;1.75;1.00;;;;;;;;5024318;28;45340;-83
2021/12/30 14:25:33;;;;;;;;;1.75;1.00;;;;;;;;5028253;28;48268;-82
2021/12/30 14:28:00;;;;;;;;;2.00;1.00;;;;;;;;5030610;28;45518;-83
2021/12/30 14:30:32;;;;;;;;;2.25;1.00;;;;;;;;5017285;28;45836;-83
2021/12/30 14:33:11;;;;;;;;;2.00;1.25;;;;;;;;5032354;28;45521;-83
2021/12/30 14:35:36;;;;;;;;;1.25;1.25;;;;;;;;5029557;28;46595;-83
2021/12/30 14:38:02;;;;;;;;;1.67;1.00;;;;;;;;5025941;28;45949;-83
2021/12/30 14:40:27;;;;;;;;;2.25;2.00;;;;;;;;5018896;28;45605;-83
2021/12/30 14:42:59;;;;;;;;;2.00;1.00;;;;;;;;5016488;28;45600;-81